CYGK

Kingston Norman Rogers Airport

Kingston, Ontario, Canada
METAR CYGK 172300Z 32008KT 15SM SCT080 SCT110 BKN250 27/10 A2978 RMK CU3AC1CI1 SLP086 DENSITY ALT 1900FT
Observed Flight Rules
Jul-17 @ 23:00 UTC (21 minutes ago) Visual Flight Rules
Wind Visibility Clouds
320° at 8 knots 15 miles
  • Scattered at 8,000' AGL
  • Scattered at 11,000' AGL
  • Broken at 25,000' AGL
Temperatures Readings
Current 27°C / 81°F
Dewpoint 10°C / 50°F
Humidity 34%
Altimeter 29.78" Hg
Pressure 1008.6 hPa
Elevation 93
METAR CYGK 172300Z 32008KT 15SM SCT080 SCT110 BKN250 27/10 A2978 RMK CU3AC1CI1 SLP086 DENSITY ALT 1900FT
Observed Flight Rules
Jul-17 @ 23:00 UTC
(21 minutes ago)
VFR
Wind Visibility
320° at 8 knots 15 miles
Clouds
  • Scattered at 8,000' AGL
  • Scattered at 11,000' AGL
  • Broken at 25,000' AGL
Temperature Dewpoint
27°C / 81°F 10°C / 50°F
Humidity Altimeter Pressure
34% 29.78" Hg 1008.6 hPa